Portada
METAR-TAF:

METAR-TAF

Aeroports :

Vladivostok, Rússia

latitud: 43-07N, longitud: 131-56E, altitud: 184 m

Observació

L'informe es va fer fa 25 minuts, a les 00:00 UTC
Vent calma
Temperatura 17°C
Humitat 68%
Pressió 1020 hPa
Visibilitat 10 km o més
Escasses núvols a una alçada de 2300 ft

METAR: UHWW 210000Z 00000MPS 9999 FEW023 17/11 Q1020 R25L/0///70 NOSIG RMK QFE764

Hora: 10:25 (00:25 UTC)

Pronòstic

L'informe es va fer fa 1 hora i 30 minuts, a les 22:55 UTC
Pronòstic vàlid del 21 a les 00 UTC al 21 a les 24 UTC
Vent 6 kt del Nord/Nord-Oest
Visibilitat 10 km o més
Núvols disperses a una alçada de 3000 ft
Temporalment
l' 21 a les 00 UTC al 21 a les 09 UTC
Visibilitat: 5000 m
Cel ennuvolat a una alçada de 2000 ft, Cumulonimbus.
xàfecs de pluja
Evolucionant progressivament
l' 21 a les 10 UTC al 21 a les 12 UTC
Vent 6 kt del Nord

TAF: UHWW 202255Z 2100/2124 34003MPS 9999 SCT030 TEMPO 2100/2109 5000 -SHRA BKN020CB BECMG 2110/2112 36003MPS

Observacions i pronòstics meteorològics de més de 4000 aeroports (METAR i TAF).

Les estacions disponibles són els punts grocs i vermells al mapa.

Posi el ratolí al punt desitjat per veure el nom de l'estació.

Feu clic per veure les observacions i els pronòstics meteorològics.

Per canviar el mapa: feu clic els botons verds amb una creu de color negre per apropar; al botó verd amb un guió per allunyar la imatge; o en les fletxes verdes per a mapes adjacents.


METAR-TAF: